Club Med II — FNIR — position and weather

sailwx.info

Track history (hours):
 
Tides and Currents Weather Stations Pressure Air Temp Water Temp Dewpoint Dewpoint Depression Visibility Wind Speed Wind Dir Waves Ship Positions

Club Med II

Operator: V.Ships Leisure S.A.M

Last reported at 2017-Apr-24 23:00 UTC. Time now 2017-Apr-24 23:06 UTC.
Position N 39°05' E 002°56'.

Length 187 m; draft 5.2 m.

Type: Ship. MMSI: 227194000.

Date/timePositionNaut miles runAvg speedWind from/ knotsBaromVisibWave heightAir tempDewpointWater temp
2017-Apr-24 23:00N 39°05' E 002°56'713.8
2017-Apr-24 22:30N 39°04' E 002°48'814.0
2017-Apr-24 21:58N 39°03' E 002°38'714.2
2017-Apr-24 21:30N 39°02' E 002°30'713.9
2017-Apr-24 21:00N 39°00' E 002°21'713.8
2017-Apr-24 20:30N 38°59' E 002°12'713.8
2017-Apr-24 19:59N 38°59' E 002°03'713.9
2017-Apr-24 19:30N 38°58' E 001°55'714.0
2017-Apr-24 19:00N 38°56' E 001°46'713.9
2017-Apr-24 18:30N 38°55' E 001°37'5 9.8
2017-Apr-24 18:00N 38°54' E 001°31'  
2017-Apr-22 03:12N 36°17' W 004°60'311.2
2017-Apr-22 02:57N 36°16' W 005°02'510.4
2017-Apr-22 02:31N 36°13' W 005°07'510.3
2017-Apr-22 02:01N 36°09' W 005°11'510.5
2017-Apr-22 01:31N 36°05' W 005°15'5 9.1
2017-Apr-22 01:00N 36°02' W 005°20'4 8.7
2017-Apr-22 00:31N 35°60' W 005°24'4 7.9
2017-Apr-22 00:01N 35°58' W 005°29'4 8.7
2017-Apr-21 23:31N 35°57' W 005°34'611.1
2017-Apr-21 23:00N 35°55' W 005°40'122 4.8
2017-Apr-20 21:42N 36°43' W 007°60'1 6.8
2017-Apr-20 21:30N 36°44' W 008°01'4 7.1
2017-Apr-20 21:00N 36°45' W 008°06'4 7.1
2017-Apr-20 20:30N 36°46' W 008°10'4 7.3
2017-Apr-20 20:00N 36°47' W 008°14'4 7.2
2017-Apr-20 19:30N 36°48' W 008°19'4 7.5
2017-Apr-20 18:59N 36°48' W 008°24'4 7.6
2017-Apr-20 18:31N 36°47' W 008°28'4 8.0
2017-Apr-20 18:00N 36°47' W 008°33'4 8.7
2017-Apr-20 17:30N 36°47' W 008°39'4 8.6
2017-Apr-20 17:00N 36°48' W 008°44'54 9.0
2017-Apr-20 11:01N 37°33' W 009°21'111.1
2017-Apr-20 10:55N 37°34' W 009°22'510.7
2017-Apr-20 10:26N 37°38' W 009°23'510.5
2017-Apr-20 10:00N 37°43' W 009°25'510.3
2017-Apr-20 09:30N 37°48' W 009°26'510.3
2017-Apr-20 09:01N 37°53' W 009°28'510.3
2017-Apr-20 08:30N 37°58' W 009°29'510.4
2017-Apr-20 08:00N 38°03' W 009°30'510.9
2017-Apr-20 07:31N 38°08' W 009°30'611.4
2017-Apr-20 07:00N 38°14' W 009°30'5 9.5
2017-Apr-20 06:30N 38°19' W 009°29'1 1.6
2017-Apr-20 06:00N 38°19' W 009°28'1 1.7
2017-Apr-20 05:30N 38°19' W 009°27'510.4
2017-Apr-20 05:00N 38°24' W 009°26'511.0
2017-Apr-20 04:31N 38°29' W 009°25'510.5
2017-Apr-20 04:01N 38°35' W 009°24'611.8
2017-Apr-20 03:30N 38°39' W 009°19'611.2
2017-Apr-20 03:00N 38°41' W 009°13'3 5.0
2017-Apr-20 02:30N 38°42' W 009°10'0 0.0
2017-Apr-20 01:28N 38°42' W 009°10'0 0.0
2017-Apr-20 00:49N 38°42' W 009°10'0 0.0
2017-Apr-20 00:16N 38°42' W 009°10'0 0.0
2017-Apr-19 23:19N 38°42' W 009°10'0 0.0
2017-Apr-19 22:58N 38°42' W 009°10'0 0.0
2017-Apr-19 21:43N 38°42' W 009°10'0 0.0
2017-Apr-19 21:28N 38°42' W 009°10'0 0.0
2017-Apr-19 19:55N 38°42' W 009°10'0 0.0
2017-Apr-19 19:31N 38°42' W 009°10'0 0.0
2017-Apr-19 19:01N 38°42' W 009°10'0 0.0
2017-Apr-19 17:43N 38°42' W 009°10'0 0.0
2017-Apr-19 17:06N 38°42' W 009°10'0 0.1
2017-Apr-19 17:00N 38°42' W 009°10'0 0.0
2017-Apr-19 16:30N 38°42' W 009°10'0 0.0
2017-Apr-19 16:00N 38°42' W 009°10'0 0.0
2017-Apr-19 15:30N 38°42' W 009°10'0 0.0
2017-Apr-19 14:57N 38°42' W 009°10'0 0.0
2017-Apr-19 14:27N 38°42' W 009°10'0 0.0
2017-Apr-19 13:21N 38°42' W 009°10'0 0.0
2017-Apr-19 12:51N 38°42' W 009°10'0 0.0
2017-Apr-19 12:21N 38°42' W 009°10'0 0.0
2017-Apr-19 11:57N 38°42' W 009°10'0 0.0
2017-Apr-19 11:30N 38°42' W 009°10'0 0.0
2017-Apr-19 10:48N 38°42' W 009°10'0 0.0
2017-Apr-19 10:30N 38°42' W 009°10'0 0.0
2017-Apr-19 09:48N 38°42' W 009°10'0 0.0
2017-Apr-19 08:48N 38°42' W 009°10'0 0.0
2017-Apr-19 08:24N 38°42' W 009°10'0 0.0
2017-Apr-19 07:48N 38°42' W 009°10'0 0.0
2017-Apr-19 07:30N 38°42' W 009°10'0 0.0
2017-Apr-19 07:00N 38°42' W 009°10'0 0.0
2017-Apr-19 06:30N 38°42' W 009°10'0 0.0
2017-Apr-19 05:57N 38°42' W 009°10'0 0.0
2017-Apr-19 05:18N 38°42' W 009°10'0 0.0
2017-Apr-19 04:57N 38°42' W 009°10'0 0.0
2017-Apr-19 04:09N 38°42' W 009°10'0 0.0
2017-Apr-19 04:00N 38°42' W 009°10'0 0.0
2017-Apr-19 03:27N 38°42' W 009°10'0 0.0
2017-Apr-19 03:00N 38°42' W 009°10'0 0.0
2017-Apr-19 02:15N 38°42' W 009°10'0 0.0
2017-Apr-19 01:48N 38°42' W 009°10'0 0.0
2017-Apr-19 01:21N 38°42' W 009°10'0 0.0
2017-Apr-19 00:48N 38°42' W 009°10'0 0.0
2017-Apr-19 00:27N 38°42' W 009°10'0 0.0
2017-Apr-18 23:48N 38°42' W 009°10'0 0.0
2017-Apr-18 23:27N 38°42' W 009°10'0 0.0
2017-Apr-18 22:57N 38°42' W 009°10'0 0.0
2017-Apr-18 22:30N 38°42' W 009°10'0 0.0
2017-Apr-18 22:00N 38°42' W 009°10'0 0.0
2017-Apr-18 21:24N 38°42' W 009°10'0 0.0
2017-Apr-18 20:42N 38°42' W 009°10'0 0.0
2017-Apr-18 20:30N 38°42' W 009°10'0 0.0
2017-Apr-18 20:00N 38°42' W 009°10'0 0.0
2017-Apr-18 19:30N 38°42' W 009°10'0 0.0
2017-Apr-18 19:00N 38°42' W 009°10'0 0.0
2017-Apr-18 18:24N 38°42' W 009°10'0 0.0
2017-Apr-18 17:54N 38°42' W 009°10'0 0.0
2017-Apr-18 17:24N 38°42' W 009°10'0 0.0
2017-Apr-18 16:48N 38°42' W 009°10'0 0.0
2017-Apr-18 16:06N 38°42' W 009°10'0 0.0
2017-Apr-18 15:48N 38°42' W 009°10'0 0.0
2017-Apr-18 15:24N 38°42' W 009°10'0 0.0
2017-Apr-18 13:48N 38°42' W 009°10'0 0.0
2017-Apr-18 13:28N 38°42' W 009°10'0 0.1
2017-Apr-18 13:00N 38°42' W 009°10'2 3.9
2017-Apr-18 12:31N 38°41' W 009°12'3 6.9
2017-Apr-18 12:00N 38°41' W 009°16'4 8.0
2017-Apr-18 11:30N 38°39' W 009°20'4 8.4
2017-Apr-18 11:00N 38°36' W 009°24'4 8.8
2017-Apr-18 10:30N 38°33' W 009°28'4 8.8
2017-Apr-18 10:00N 38°29' W 009°32'4 8.9
2017-Apr-18 09:31N 38°26' W 009°35'4 8.9
2017-Apr-18 09:00N 38°22' W 009°39'4 8.2
2017-Apr-18 08:30N 38°19' W 009°42'4 8.5
2017-Apr-18 08:00N 38°16' W 009°46'4 8.6
2017-Apr-18 07:30N 38°13' W 009°49'4 8.9
2017-Apr-18 07:00N 38°10' W 009°54'4 8.5
2017-Apr-18 06:30N 38°07' W 009°58'4 8.9
2017-Apr-18 06:00N 38°03' W 010°01'5 9.3
2017-Apr-18 05:30N 37°60' W 010°05'4 9.0
2017-Apr-18 05:01N 37°56' W 010°08'4 8.6
2017-Apr-18 04:30N 37°52' W 010°11'4 8.5
2017-Apr-18 04:01N 37°49' W 010°14'5 9.3
2017-Apr-18 03:30N 37°45' W 010°18'5 9.4
2017-Apr-18 03:01N 37°42' W 010°21'5 9.1
2017-Apr-18 02:31N 37°38' W 010°25'8 9.1
2017-Apr-18 01:38N 37°32' W 010°31'1 9.2
2017-Apr-18 01:30N 37°31' W 010°32'5 9.3
2017-Apr-18 00:58N 37°27' W 010°35'4 9.4
2017-Apr-18 00:31N 37°23' W 010°38'5 9.5
2017-Apr-18 00:00N 37°19' W 010°41'5 9.6
2017-Apr-17 23:28N 37°14' W 010°44'4 9.4
2017-Apr-17 23:00N 37°11' W 010°47'4 8.9
2017-Apr-17 22:30N 37°07' W 010°51'4 8.6
2017-Apr-17 22:01N 37°04' W 010°54'4 8.3
2017-Apr-17 21:31N 36°60' W 010°56'4 8.5
2017-Apr-17 21:01N 36°56' W 010°58'4 8.9
2017-Apr-17 20:30N 36°52' W 011°01'4 8.9
2017-Apr-17 20:00N 36°48' W 011°04'4 8.6
2017-Apr-17 19:30N 36°45' W 011°07'3 6.7
2017-Apr-17 19:01N 36°42' W 011°09'4 7.0
2017-Apr-17 18:30N 36°40' W 011°13'3 6.9
2017-Apr-17 18:00N 36°38' W 011°17'3 6.6
2017-Apr-17 17:30N 36°37' W 011°20'4 7.3
2017-Apr-17 17:00N 36°35' W 011°24'4 8.4
2017-Apr-17 16:30N 36°33' W 011°29'4 7.3
2017-Apr-17 16:00N 36°32' W 011°33'3 6.8
2017-Apr-17 15:31N 36°32' W 011°37'4 7.2
2017-Apr-17 15:00N 36°32' W 011°42'8 7.6
2017-Apr-17 14:00N 36°29' W 011°50'4 8.7
2017-Apr-17 13:30N 36°25' W 011°54'4 8.5
2017-Apr-17 13:01N 36°22' W 011°57'4 8.3
2017-Apr-17 12:30N 36°19' W 012°01'4 8.2
2017-Apr-17 12:00N 36°16' W 012°04'4 8.4
2017-Apr-17 11:30N 36°13' W 012°07'4 8.4
2017-Apr-17 11:00N 36°09' W 012°10'4 8.4
2017-Apr-17 10:30N 36°06' W 012°13'4 8.3
2017-Apr-17 10:00N 36°02' W 012°16'4 8.2
2017-Apr-17 09:30N 35°59' W 012°19'4 8.1
2017-Apr-17 09:00N 35°56' W 012°22'4 8.2
2017-Apr-17 08:31N 35°53' W 012°25'4 7.8
2017-Apr-17 08:01N 35°49' W 012°27'4 7.9
2017-Apr-17 07:30N 35°46' W 012°30'4 7.5
2017-Apr-17 07:00N 35°44' W 012°34'4 7.9
2017-Apr-17 06:31N 35°41' W 012°37'4 7.9
2017-Apr-17 06:00N 35°37' W 012°40'4 7.7
2017-Apr-17 05:31N 35°34' W 012°42'4 7.8
2017-Apr-17 05:00N 35°31' W 012°45'4 7.9
2017-Apr-17 04:30N 35°28' W 012°48'4 7.9
2017-Apr-17 04:00N 35°25' W 012°51'4 7.8
2017-Apr-17 03:30N 35°22' W 012°54'4 7.6
2017-Apr-17 03:00N 35°19' W 012°57'5 7.9
2017-Apr-17 02:25N 35°15' W 013°00'3 8.0
2017-Apr-17 02:01N 35°12' W 013°03'4 8.0
2017-Apr-17 01:30N 35°09' W 013°06'4 8.1
2017-Apr-17 01:00N 35°06' W 013°09'4 7.8
2017-Apr-17 00:30N 35°03' W 013°12'4 7.8
2017-Apr-17 00:00N 34°60' W 013°15'12 8.0
2017-Apr-16 22:27N 34°50' W 013°24'14 8.1
2017-Apr-16 20:43N 34°39' W 013°34'2 8.3
2017-Apr-16 20:30N 34°38' W 013°35'4 8.2
2017-Apr-16 20:00N 34°34' W 013°38'4 8.1
2017-Apr-16 19:30N 34°31' W 013°41'4 7.9
2017-Apr-16 19:01N 34°28' W 013°44'4 8.3
2017-Apr-16 18:31N 34°25' W 013°47'4 7.8
2017-Apr-16 18:00N 34°22' W 013°50'4 7.4
2017-Apr-16 17:30N 34°19' W 013°53'19 8.3
2017-Apr-16 15:11N 34°03' W 014°07'24 8.6
2017-Apr-16 12:20N 33°45' W 014°27'3 8.2
2017-Apr-16 11:58N 33°42' W 014°28'5 8.4
2017-Apr-16 11:25N 33°38' W 014°31'4 8.3
2017-Apr-16 10:59N 33°36' W 014°34'4 8.3
2017-Apr-16 10:30N 33°34' W 014°38'105 8.3
2017-Apr-15 21:46N 32°43' W 016°29'2 8.4
2017-Apr-15 21:30N 32°42' W 016°31'4 8.8
2017-Apr-15 21:01N 32°40' W 016°35'4 8.5
2017-Apr-15 20:30N 32°38' W 016°40'4 8.3
2017-Apr-15 20:00N 32°37' W 016°45'5 8.7
2017-Apr-15 19:28N 32°37' W 016°50'4 0.3
2017-Apr-15 06:51N 32°39' W 016°54'  
Track history (hours):
 
Tides and Currents Weather Stations Pressure Air Temp Water Temp Dewpoint Dewpoint Depression Visibility Wind Speed Wind Dir Waves Ship Positions

Club Med II

Operator: V.Ships Leisure S.A.M

Last reported at 2017-Apr-24 23:00 UTC. Time now 2017-Apr-24 23:06 UTC.
Position N 39°05' E 002°56'.

Length 187 m; draft 5.2 m.

Type: Ship. MMSI: 227194000.

Date/timePositionNaut miles runAvg speedWind from/ knotsBaromVisibWave heightAir tempDewpointWater temp
2017-Apr-24 23:00N 39°05' E 002°56'713.8
2017-Apr-24 22:30N 39°04' E 002°48'814.0
2017-Apr-24 21:58N 39°03' E 002°38'714.2
2017-Apr-24 21:30N 39°02' E 002°30'713.9
2017-Apr-24 21:00N 39°00' E 002°21'713.8
2017-Apr-24 20:30N 38°59' E 002°12'713.8
2017-Apr-24 19:59N 38°59' E 002°03'713.9
2017-Apr-24 19:30N 38°58' E 001°55'714.0
2017-Apr-24 19:00N 38°56' E 001°46'713.9
2017-Apr-24 18:30N 38°55' E 001°37'5 9.8
2017-Apr-24 18:00N 38°54' E 001°31'  
2017-Apr-22 03:12N 36°17' W 004°60'311.2
2017-Apr-22 02:57N 36°16' W 005°02'510.4
2017-Apr-22 02:31N 36°13' W 005°07'510.3
2017-Apr-22 02:01N 36°09' W 005°11'510.5
2017-Apr-22 01:31N 36°05' W 005°15'5 9.1
2017-Apr-22 01:00N 36°02' W 005°20'4 8.7
2017-Apr-22 00:31N 35°60' W 005°24'4 7.9
2017-Apr-22 00:01N 35°58' W 005°29'4 8.7
2017-Apr-21 23:31N 35°57' W 005°34'611.1
2017-Apr-21 23:00N 35°55' W 005°40'122 4.8
2017-Apr-20 21:42N 36°43' W 007°60'1 6.8
2017-Apr-20 21:30N 36°44' W 008°01'4 7.1
2017-Apr-20 21:00N 36°45' W 008°06'4 7.1
2017-Apr-20 20:30N 36°46' W 008°10'4 7.3
2017-Apr-20 20:00N 36°47' W 008°14'4 7.2
2017-Apr-20 19:30N 36°48' W 008°19'4 7.5
2017-Apr-20 18:59N 36°48' W 008°24'4 7.6
2017-Apr-20 18:31N 36°47' W 008°28'4 8.0
2017-Apr-20 18:00N 36°47' W 008°33'4 8.7
2017-Apr-20 17:30N 36°47' W 008°39'4 8.6
2017-Apr-20 17:00N 36°48' W 008°44'54 9.0
2017-Apr-20 11:01N 37°33' W 009°21'111.1
2017-Apr-20 10:55N 37°34' W 009°22'510.7
2017-Apr-20 10:26N 37°38' W 009°23'510.5
2017-Apr-20 10:00N 37°43' W 009°25'510.3
2017-Apr-20 09:30N 37°48' W 009°26'510.3
2017-Apr-20 09:01N 37°53' W 009°28'510.3
2017-Apr-20 08:30N 37°58' W 009°29'510.4
2017-Apr-20 08:00N 38°03' W 009°30'510.9
2017-Apr-20 07:31N 38°08' W 009°30'611.4
2017-Apr-20 07:00N 38°14' W 009°30'5 9.5
2017-Apr-20 06:30N 38°19' W 009°29'1 1.6
2017-Apr-20 06:00N 38°19' W 009°28'1 1.7
2017-Apr-20 05:30N 38°19' W 009°27'510.4
2017-Apr-20 05:00N 38°24' W 009°26'511.0
2017-Apr-20 04:31N 38°29' W 009°25'510.5
2017-Apr-20 04:01N 38°35' W 009°24'611.8
2017-Apr-20 03:30N 38°39' W 009°19'611.2
2017-Apr-20 03:00N 38°41' W 009°13'3 5.0
2017-Apr-20 02:30N 38°42' W 009°10'0 0.0
2017-Apr-20 01:28N 38°42' W 009°10'0 0.0
2017-Apr-20 00:49N 38°42' W 009°10'0 0.0
2017-Apr-20 00:16N 38°42' W 009°10'0 0.0
2017-Apr-19 23:19N 38°42' W 009°10'0 0.0
2017-Apr-19 22:58N 38°42' W 009°10'0 0.0
2017-Apr-19 21:43N 38°42' W 009°10'0 0.0
2017-Apr-19 21:28N 38°42' W 009°10'0 0.0
2017-Apr-19 19:55N 38°42' W 009°10'0 0.0
2017-Apr-19 19:31N 38°42' W 009°10'0 0.0
2017-Apr-19 19:01N 38°42' W 009°10'0 0.0
2017-Apr-19 17:43N 38°42' W 009°10'0 0.0
2017-Apr-19 17:06N 38°42' W 009°10'0 0.1
2017-Apr-19 17:00N 38°42' W 009°10'0 0.0
2017-Apr-19 16:30N 38°42' W 009°10'0 0.0
2017-Apr-19 16:00N 38°42' W 009°10'0 0.0
2017-Apr-19 15:30N 38°42' W 009°10'0 0.0
2017-Apr-19 14:57N 38°42' W 009°10'0 0.0
2017-Apr-19 14:27N 38°42' W 009°10'0 0.0
2017-Apr-19 13:21N 38°42' W 009°10'0 0.0
2017-Apr-19 12:51N 38°42' W 009°10'0 0.0
2017-Apr-19 12:21N 38°42' W 009°10'0 0.0
2017-Apr-19 11:57N 38°42' W 009°10'0 0.0
2017-Apr-19 11:30N 38°42' W 009°10'0 0.0
2017-Apr-19 10:48N 38°42' W 009°10'0 0.0
2017-Apr-19 10:30N 38°42' W 009°10'0 0.0
2017-Apr-19 09:48N 38°42' W 009°10'0 0.0
2017-Apr-19 08:48N 38°42' W 009°10'0 0.0
2017-Apr-19 08:24N 38°42' W 009°10'0 0.0
2017-Apr-19 07:48N 38°42' W 009°10'0 0.0
2017-Apr-19 07:30N 38°42' W 009°10'0 0.0
2017-Apr-19 07:00N 38°42' W 009°10'0 0.0
2017-Apr-19 06:30N 38°42' W 009°10'0 0.0
2017-Apr-19 05:57N 38°42' W 009°10'0 0.0
2017-Apr-19 05:18N 38°42' W 009°10'0 0.0
2017-Apr-19 04:57N 38°42' W 009°10'0 0.0
2017-Apr-19 04:09N 38°42' W 009°10'0 0.0
2017-Apr-19 04:00N 38°42' W 009°10'0 0.0
2017-Apr-19 03:27N 38°42' W 009°10'0 0.0
2017-Apr-19 03:00N 38°42' W 009°10'0 0.0
2017-Apr-19 02:15N 38°42' W 009°10'0 0.0
2017-Apr-19 01:48N 38°42' W 009°10'0 0.0
2017-Apr-19 01:21N 38°42' W 009°10'0 0.0
2017-Apr-19 00:48N 38°42' W 009°10'0 0.0
2017-Apr-19 00:27N 38°42' W 009°10'0 0.0
2017-Apr-18 23:48N 38°42' W 009°10'0 0.0
2017-Apr-18 23:27N 38°42' W 009°10'0 0.0
2017-Apr-18 22:57N 38°42' W 009°10'0 0.0
2017-Apr-18 22:30N 38°42' W 009°10'0 0.0
2017-Apr-18 22:00N 38°42' W 009°10'0 0.0
2017-Apr-18 21:24N 38°42' W 009°10'0 0.0
2017-Apr-18 20:42N 38°42' W 009°10'0 0.0
2017-Apr-18 20:30N 38°42' W 009°10'0 0.0
2017-Apr-18 20:00N 38°42' W 009°10'0 0.0
2017-Apr-18 19:30N 38°42' W 009°10'0 0.0
2017-Apr-18 19:00N 38°42' W 009°10'0 0.0
2017-Apr-18 18:24N 38°42' W 009°10'0 0.0
2017-Apr-18 17:54N 38°42' W 009°10'0 0.0
2017-Apr-18 17:24N 38°42' W 009°10'0 0.0
2017-Apr-18 16:48N 38°42' W 009°10'0 0.0
2017-Apr-18 16:06N 38°42' W 009°10'0 0.0
2017-Apr-18 15:48N 38°42' W 009°10'0 0.0
2017-Apr-18 15:24N 38°42' W 009°10'0 0.0
2017-Apr-18 13:48N 38°42' W 009°10'0 0.0
2017-Apr-18 13:28N 38°42' W 009°10'0 0.1
2017-Apr-18 13:00N 38°42' W 009°10'2 3.9
2017-Apr-18 12:31N 38°41' W 009°12'3 6.9
2017-Apr-18 12:00N 38°41' W 009°16'4 8.0
2017-Apr-18 11:30N 38°39' W 009°20'4 8.4
2017-Apr-18 11:00N 38°36' W 009°24'4 8.8
2017-Apr-18 10:30N 38°33' W 009°28'4 8.8
2017-Apr-18 10:00N 38°29' W 009°32'4 8.9
2017-Apr-18 09:31N 38°26' W 009°35'4 8.9
2017-Apr-18 09:00N 38°22' W 009°39'4 8.2
2017-Apr-18 08:30N 38°19' W 009°42'4 8.5
2017-Apr-18 08:00N 38°16' W 009°46'4 8.6
2017-Apr-18 07:30N 38°13' W 009°49'4 8.9
2017-Apr-18 07:00N 38°10' W 009°54'4 8.5
2017-Apr-18 06:30N 38°07' W 009°58'4 8.9
2017-Apr-18 06:00N 38°03' W 010°01'5 9.3
2017-Apr-18 05:30N 37°60' W 010°05'4 9.0
2017-Apr-18 05:01N 37°56' W 010°08'4 8.6
2017-Apr-18 04:30N 37°52' W 010°11'4 8.5
2017-Apr-18 04:01N 37°49' W 010°14'5 9.3
2017-Apr-18 03:30N 37°45' W 010°18'5 9.4
2017-Apr-18 03:01N 37°42' W 010°21'5 9.1
2017-Apr-18 02:31N 37°38' W 010°25'8 9.1
2017-Apr-18 01:38N 37°32' W 010°31'1 9.2
2017-Apr-18 01:30N 37°31' W 010°32'5 9.3
2017-Apr-18 00:58N 37°27' W 010°35'4 9.4
2017-Apr-18 00:31N 37°23' W 010°38'5 9.5
2017-Apr-18 00:00N 37°19' W 010°41'5 9.6
2017-Apr-17 23:28N 37°14' W 010°44'4 9.4
2017-Apr-17 23:00N 37°11' W 010°47'4 8.9
2017-Apr-17 22:30N 37°07' W 010°51'4 8.6
2017-Apr-17 22:01N 37°04' W 010°54'4 8.3
2017-Apr-17 21:31N 36°60' W 010°56'4 8.5
2017-Apr-17 21:01N 36°56' W 010°58'4 8.9
2017-Apr-17 20:30N 36°52' W 011°01'4 8.9
2017-Apr-17 20:00N 36°48' W 011°04'4 8.6
2017-Apr-17 19:30N 36°45' W 011°07'3 6.7
2017-Apr-17 19:01N 36°42' W 011°09'4 7.0
2017-Apr-17 18:30N 36°40' W 011°13'3 6.9
2017-Apr-17 18:00N 36°38' W 011°17'3 6.6
2017-Apr-17 17:30N 36°37' W 011°20'4 7.3
2017-Apr-17 17:00N 36°35' W 011°24'4 8.4
2017-Apr-17 16:30N 36°33' W 011°29'4 7.3
2017-Apr-17 16:00N 36°32' W 011°33'3 6.8
2017-Apr-17 15:31N 36°32' W 011°37'4 7.2
2017-Apr-17 15:00N 36°32' W 011°42'8 7.6
2017-Apr-17 14:00N 36°29' W 011°50'4 8.7
2017-Apr-17 13:30N 36°25' W 011°54'4 8.5
2017-Apr-17 13:01N 36°22' W 011°57'4 8.3
2017-Apr-17 12:30N 36°19' W 012°01'4 8.2
2017-Apr-17 12:00N 36°16' W 012°04'4 8.4
2017-Apr-17 11:30N 36°13' W 012°07'4 8.4
2017-Apr-17 11:00N 36°09' W 012°10'4 8.4
2017-Apr-17 10:30N 36°06' W 012°13'4 8.3
2017-Apr-17 10:00N 36°02' W 012°16'4 8.2
2017-Apr-17 09:30N 35°59' W 012°19'4 8.1
2017-Apr-17 09:00N 35°56' W 012°22'4 8.2
2017-Apr-17 08:31N 35°53' W 012°25'4 7.8
2017-Apr-17 08:01N 35°49' W 012°27'4 7.9
2017-Apr-17 07:30N 35°46' W 012°30'4 7.5
2017-Apr-17 07:00N 35°44' W 012°34'4 7.9
2017-Apr-17 06:31N 35°41' W 012°37'4 7.9
2017-Apr-17 06:00N 35°37' W 012°40'4 7.7
2017-Apr-17 05:31N 35°34' W 012°42'4 7.8
2017-Apr-17 05:00N 35°31' W 012°45'4 7.9
2017-Apr-17 04:30N 35°28' W 012°48'4 7.9
2017-Apr-17 04:00N 35°25' W 012°51'4 7.8
2017-Apr-17 03:30N 35°22' W 012°54'4 7.6
2017-Apr-17 03:00N 35°19' W 012°57'5 7.9
2017-Apr-17 02:25N 35°15' W 013°00'3 8.0
2017-Apr-17 02:01N 35°12' W 013°03'4 8.0
2017-Apr-17 01:30N 35°09' W 013°06'4 8.1
2017-Apr-17 01:00N 35°06' W 013°09'4 7.8
2017-Apr-17 00:30N 35°03' W 013°12'4 7.8
2017-Apr-17 00:00N 34°60' W 013°15'12 8.0
2017-Apr-16 22:27N 34°50' W 013°24'14 8.1
2017-Apr-16 20:43N 34°39' W 013°34'2 8.3
2017-Apr-16 20:30N 34°38' W 013°35'4 8.2
2017-Apr-16 20:00N 34°34' W 013°38'4 8.1
2017-Apr-16 19:30N 34°31' W 013°41'4 7.9
2017-Apr-16 19:01N 34°28' W 013°44'4 8.3
2017-Apr-16 18:31N 34°25' W 013°47'4 7.8
2017-Apr-16 18:00N 34°22' W 013°50'4 7.4
2017-Apr-16 17:30N 34°19' W 013°53'19 8.3
2017-Apr-16 15:11N 34°03' W 014°07'24 8.6
2017-Apr-16 12:20N 33°45' W 014°27'3 8.2
2017-Apr-16 11:58N 33°42' W 014°28'5 8.4
2017-Apr-16 11:25N 33°38' W 014°31'4 8.3
2017-Apr-16 10:59N 33°36' W 014°34'4 8.3
2017-Apr-16 10:30N 33°34' W 014°38'105 8.3
2017-Apr-15 21:46N 32°43' W 016°29'2 8.4
2017-Apr-15 21:30N 32°42' W 016°31'4 8.8
2017-Apr-15 21:01N 32°40' W 016°35'4 8.5
2017-Apr-15 20:30N 32°38' W 016°40'4 8.3
2017-Apr-15 20:00N 32°37' W 016°45'5 8.7
2017-Apr-15 19:28N 32°37' W 016°50'4 0.3
2017-Apr-15 06:51N 32°39' W 016°54'  

Dump ship's entire track history